Time;durP1;ratioP1;P1;durP2;ratioP2;P2;SDS_P1;SDS_P2;PMS_P1;PMS_P2;Temp;Humidity;BMP_temperature;BMP_pressure;BME280_temperature;BME280_humidity;BME280_pressure;Samples;Min_cycle;Max_cycle;Signal;HPM_P1;HPM_P2
2022/05/20 00:00:11;;;;;;;6.18;4.50;;;;;;;;;;4939800;29;20151;-72
2022/05/20 00:02:39;;;;;;;7.30;4.38;;;;;;;;;;4939277;29;20051;-70
2022/05/20 00:05:12;;;;;;;5.00;4.50;;;;;;;;;;4939684;29;20139;-71
2022/05/20 00:07:41;;;;;;;4.65;4.25;;;;;;;;;;4939503;29;20110;-71
2022/05/20 00:10:10;;;;;;;7.10;4.07;;;;;;;;;;4939579;29;20475;-71
2022/05/20 00:12:40;;;;;;;7.78;4.47;;;;;;;;;;4939053;29;20056;-71
2022/05/20 00:15:09;;;;;;;7.13;4.43;;;;;;;;;;4939253;29;20422;-70
2022/05/20 00:17:37;;;;;;;5.15;4.20;;;;;;;;;;4939203;29;20102;-70
2022/05/20 00:20:10;;;;;;;4.72;4.13;;;;;;;;;;4939411;29;20055;-72
2022/05/20 00:22:39;;;;;;;11.10;5.07;;;;;;;;;;4938463;29;20077;-73
2022/05/20 00:27:56;;;;;;;6.95;4.97;;;;;;;;;;4939519;29;20127;-73
2022/05/20 00:30:24;;;;;;;7.05;5.00;;;;;;;;;;4938711;29;20051;-73
2022/05/20 00:32:53;;;;;;;7.78;5.65;;;;;;;;;;4939172;29;20069;-72
2022/05/20 00:35:23;;;;;;;9.90;6.50;;;;;;;;;;4938243;29;20059;-72
2022/05/20 00:37:54;;;;;;;10.43;6.28;;;;;;;;;;4939421;29;20047;-73
2022/05/20 00:40:25;;;;;;;13.15;7.45;;;;;;;;;;4938842;29;20071;-73
2022/05/20 00:43:22;;;;;;;14.80;7.10;;;;;;;;;;4938942;29;20058;-73
2022/05/20 00:45:51;;;;;;;10.45;8.63;;;;;;;;;;4931727;29;20063;-73
2022/05/20 00:48:20;;;;;;;13.75;8.13;;;;;;;;;;4938396;29;20055;-73
2022/05/20 00:51:14;;;;;;;11.93;8.45;;;;;;;;;;4938668;29;20102;-72
2022/05/20 00:54:04;;;;;;;10.68;8.52;;;;;;;;;;4938348;29;20521;-73
2022/05/20 00:56:44;;;;;;;8.68;6.95;;;;;;;;;;4938767;29;20169;-72
2022/05/20 00:59:15;;;;;;;11.45;6.00;;;;;;;;;;4937552;29;20402;-73
2022/05/20 01:01:46;;;;;;;11.15;7.07;;;;;;;;;;4937394;29;20070;-73
2022/05/20 01:04:16;;;;;;;7.75;5.85;;;;;;;;;;4937027;29;20463;-73
2022/05/20 01:06:44;;;;;;;11.63;6.55;;;;;;;;;;4937301;29;20051;-72
2022/05/20 01:09:13;;;;;;;14.35;8.23;;;;;;;;;;4937818;29;20130;-73
2022/05/20 01:11:41;;;;;;;10.63;7.43;;;;;;;;;;4938526;29;20134;-75
2022/05/20 01:14:10;;;;;;;9.88;7.43;;;;;;;;;;4938220;29;20055;-73
2022/05/20 01:16:42;;;;;;;14.40;8.77;;;;;;;;;;4938510;29;20051;-73
2022/05/20 01:19:15;;;;;;;13.13;7.40;;;;;;;;;;4938140;29;20129;-73
2022/05/20 01:21:43;;;;;;;12.35;8.55;;;;;;;;;;4936843;29;20090;-73
2022/05/20 01:24:12;;;;;;;14.15;8.68;;;;;;;;;;4938292;29;20056;-73
2022/05/20 01:26:41;;;;;;;13.30;9.77;;;;;;;;;;4937874;29;20060;-74
2022/05/20 01:29:09;;;;;;;10.32;9.15;;;;;;;;;;4936838;29;20048;-73
2022/05/20 01:31:38;;;;;;;19.42;9.20;;;;;;;;;;4937718;29;20418;-74
2022/05/20 01:34:07;;;;;;;10.35;9.20;;;;;;;;;;4937836;29;20154;-74
2022/05/20 01:36:36;;;;;;;9.52;8.50;;;;;;;;;;4937573;29;20055;-74
2022/05/20 01:39:05;;;;;;;12.02;9.23;;;;;;;;;;4937700;29;20059;-72
2022/05/20 01:41:55;;;;;;;11.23;9.18;;;;;;;;;;4937750;29;20051;-73
2022/05/20 01:44:35;;;;;;;11.32;9.02;;;;;;;;;;4937226;29;20055;-72
2022/05/20 01:47:38;;;;;;;18.15;9.32;;;;;;;;;;4936776;29;20083;-75
2022/05/20 01:50:22;;;;;;;10.57;8.23;;;;;;;;;;4902985;29;20059;-75
2022/05/20 01:53:24;;;;;;;14.43;8.30;;;;;;;;;;4937212;29;20507;-75
2022/05/20 01:56:09;;;;;;;12.68;8.98;;;;;;;;;;4937818;29;20151;-73
2022/05/20 01:59:03;;;;;;;16.08;8.88;;;;;;;;;;4936931;29;20063;-73
2022/05/20 02:01:35;;;;;;;13.25;8.18;;;;;;;;;;4936523;29;20122;-75
2022/05/20 02:04:07;;;;;;;17.88;9.70;;;;;;;;;;4936369;29;20106;-74
2022/05/20 02:06:57;;;;;;;14.48;10.45;;;;;;;;;;4937511;29;20553;-76
2022/05/20 02:10:07;;;;;;;10.18;8.95;;;;;;;;;;4937389;29;20063;-76
2022/05/20 02:12:41;;;;;;;17.05;9.63;;;;;;;;;;4936547;29;20157;-76
2022/05/20 02:15:16;;;;;;;13.55;10.10;;;;;;;;;;4935684;29;20044;-76
2022/05/20 02:17:47;;;;;;;10.93;8.52;;;;;;;;;;4936141;29;20043;-76
2022/05/20 02:20:41;;;;;;;10.27;9.27;;;;;;;;;;4937371;29;20103;-76
2022/05/20 02:23:15;;;;;;;12.20;9.90;;;;;;;;;;4936724;29;20052;-76
2022/05/20 02:25:48;;;;;;;13.32;8.60;;;;;;;;;;4935884;29;20039;-76
2022/05/20 02:28:21;;;;;;;10.50;9.05;;;;;;;;;;4935718;29;20055;-76
2022/05/20 02:30:50;;;;;;;9.02;8.10;;;;;;;;;;4936181;29;20139;-76
2022/05/20 02:33:21;;;;;;;14.95;9.43;;;;;;;;;;4935575;29;20059;-75
2022/05/20 02:35:50;;;;;;;14.20;10.15;;;;;;;;;;4936762;29;20489;-76
2022/05/20 02:38:29;;;;;;;10.95;9.50;;;;;;;;;;4936696;29;20091;-77
2022/05/20 02:40:58;;;;;;;10.75;9.05;;;;;;;;;;4937436;29;20571;-78
2022/05/20 02:43:28;;;;;;;10.85;9.13;;;;;;;;;;4936629;29;20052;-74
2022/05/20 02:45:56;;;;;;;12.38;9.13;;;;;;;;;;4937043;29;20094;-75
2022/05/20 02:48:24;;;;;;;22.15;11.77;;;;;;;;;;4937002;29;20448;-75
2022/05/20 02:50:53;;;;;;;11.68;10.48;;;;;;;;;;4936679;29;20462;-75
2022/05/20 02:53:21;;;;;;;12.30;11.00;;;;;;;;;;4936939;29;20070;-73
2022/05/20 02:55:49;;;;;;;13.90;9.90;;;;;;;;;;4936069;29;20466;-74
2022/05/20 03:04:10;;;;;;;14.07;9.65;;;;;;;;;;4936483;29;20126;-73
2022/05/20 03:07:13;;;;;;;16.67;10.05;;;;;;;;;;4936437;29;20072;-74
2022/05/20 03:09:41;;;;;;;11.18;10.07;;;;;;;;;;4935294;29;20522;-73
2022/05/20 03:12:13;;;;;;;24.67;11.13;;;;;;;;;;4936031;29;20572;-73
2022/05/20 03:14:41;;;;;;;13.88;10.05;;;;;;;;;;4936343;29;20127;-73
2022/05/20 03:17:13;;;;;;;20.02;10.77;;;;;;;;;;4936024;29;20056;-73
2022/05/20 03:19:43;;;;;;;12.95;10.73;;;;;;;;;;4936466;29;20521;-73
2022/05/20 03:22:11;;;;;;;12.98;10.60;;;;;;;;;;4936507;29;20040;-73
2022/05/20 03:24:39;;;;;;;15.05;11.00;;;;;;;;;;4936212;29;20048;-73
2022/05/20 03:27:08;;;;;;;18.30;10.65;;;;;;;;;;4936344;29;20494;-72
2022/05/20 03:29:36;;;;;;;18.60;10.82;;;;;;;;;;4935854;29;20092;-72
2022/05/20 03:32:07;;;;;;;14.48;11.60;;;;;;;;;;4936170;29;20052;-73
2022/05/20 03:34:35;;;;;;;15.63;13.18;;;;;;;;;;4919321;29;20055;-73
2022/05/20 03:37:04;;;;;;;15.90;10.70;;;;;;;;;;4935064;29;20410;-74
2022/05/20 03:39:32;;;;;;;14.23;11.25;;;;;;;;;;4918796;29;20083;-73
2022/05/20 03:42:00;;;;;;;14.98;12.27;;;;;;;;;;4936417;29;20089;-73
2022/05/20 03:44:28;;;;;;;13.00;11.68;;;;;;;;;;4936413;29;20479;-73
2022/05/20 03:46:58;;;;;;;14.52;11.68;;;;;;;;;;4935100;29;20055;-73
2022/05/20 03:49:27;;;;;;;17.40;12.70;;;;;;;;;;4936086;29;20537;-73
2022/05/20 03:51:57;;;;;;;20.38;12.57;;;;;;;;;;4935870;29;20136;-72
2022/05/20 03:54:33;;;;;;;14.13;10.57;;;;;;;;;;4936117;29;20055;-73
2022/05/20 03:57:19;;;;;;;30.08;13.80;;;;;;;;;;4934501;29;20120;-73
2022/05/20 03:59:47;;;;;;;16.80;12.10;;;;;;;;;;4936136;29;20048;-73
2022/05/20 04:02:17;;;;;;;14.93;11.88;;;;;;;;;;4936033;29;20055;-73
2022/05/20 04:04:49;;;;;;;11.95;10.68;;;;;;;;;;4936171;29;20063;-73
2022/05/20 04:07:24;;;;;;;14.07;12.15;;;;;;;;;;4936105;29;20126;-73
2022/05/20 04:09:53;;;;;;;13.18;11.43;;;;;;;;;;4936194;29;20086;-73
2022/05/20 04:12:28;;;;;;;13.85;11.85;;;;;;;;;;4939866;29;20176;-73
2022/05/20 04:14:57;;;;;;;12.88;11.63;;;;;;;;;;4938280;29;20106;-73
2022/05/20 04:17:25;;;;;;;15.73;11.02;;;;;;;;;;4939443;29;20079;-73
2022/05/20 04:19:54;;;;;;;13.07;11.18;;;;;;;;;;4939245;29;20451;-74
2022/05/20 04:22:56;;;;;;;17.95;9.88;;;;;;;;;;4938294;29;20071;-73
2022/05/20 04:25:25;;;;;;;11.63;9.55;;;;;;;;;;4938831;29;20056;-72
2022/05/20 04:27:54;;;;;;;11.88;9.07;;;;;;;;;;4939492;29;20134;-74
2022/05/20 04:30:24;;;;;;;13.52;10.23;;;;;;;;;;4939213;29;20044;-72
2022/05/20 04:32:52;;;;;;;15.00;9.55;;;;;;;;;;4944428;29;20466;-77
2022/05/20 04:35:21;;;;;;;12.68;9.43;;;;;;;;;;4950086;29;20055;-77
2022/05/20 04:37:49;;;;;;;10.50;8.50;;;;;;;;;;4948827;29;20517;-77
2022/05/20 04:40:18;;;;;;;11.20;9.05;;;;;;;;;;4951246;29;20459;-78
2022/05/20 04:48:34;;;;;;;12.68;9.88;;;;;;;;;;4924804;29;20419;-83
2022/05/20 04:51:04;;;;;;;9.85;8.82;;;;;;;;;;4945987;29;20047;-77
2022/05/20 04:56:20;;;;;;;12.75;10.65;;;;;;;;;;4948910;29;20411;-79
2022/05/20 04:58:49;;;;;;;15.38;10.50;;;;;;;;;;4951571;29;20063;-78
2022/05/20 05:01:17;;;;;;;10.90;9.23;;;;;;;;;;4947428;29;20057;-75
2022/05/20 05:03:46;;;;;;;11.88;8.98;;;;;;;;;;4950767;29;20040;-77
2022/05/20 05:06:15;;;;;;;11.52;9.52;;;;;;;;;;4951144;29;20055;-78
2022/05/20 05:08:44;;;;;;;12.07;7.95;;;;;;;;;;4951466;29;20050;-76
2022/05/20 05:11:14;;;;;;;10.13;8.48;;;;;;;;;;4951892;29;20052;-78
2022/05/20 05:13:44;;;;;;;9.93;9.02;;;;;;;;;;4950989;29;20055;-77
2022/05/20 05:16:13;;;;;;;13.63;8.32;;;;;;;;;;4947128;29;20454;-70
2022/05/20 05:18:42;;;;;;;11.27;8.45;;;;;;;;;;4946694;28;20051;-69
2022/05/20 05:21:14;;;;;;;13.10;10.32;;;;;;;;;;4952764;28;20051;-74
2022/05/20 05:23:44;;;;;;;13.05;11.32;;;;;;;;;;4951171;29;20101;-67
2022/05/20 05:26:13;;;;;;;12.85;9.70;;;;;;;;;;4951479;29;20051;-66
2022/05/20 05:28:41;;;;;;;12.48;10.20;;;;;;;;;;4945163;29;20055;-68
2022/05/20 05:31:09;;;;;;;14.60;10.32;;;;;;;;;;4945509;29;20041;-68
2022/05/20 05:33:38;;;;;;;11.43;9.40;;;;;;;;;;4952326;29;20067;-68
2022/05/20 05:36:07;;;;;;;12.05;9.18;;;;;;;;;;4956620;29;20051;-68
2022/05/20 05:38:35;;;;;;;17.98;12.63;;;;;;;;;;4956476;29;20486;-68
2022/05/20 05:41:03;;;;;;;14.45;10.05;;;;;;;;;;4957637;29;20059;-68
2022/05/20 05:43:32;;;;;;;11.05;10.05;;;;;;;;;;4956191;29;20047;-68
2022/05/20 05:46:02;;;;;;;11.00;9.48;;;;;;;;;;4957067;29;20557;-68
2022/05/20 05:48:30;;;;;;;17.90;10.00;;;;;;;;;;4956274;29;20066;-64
2022/05/20 05:50:59;;;;;;;9.82;8.75;;;;;;;;;;4954366;29;20506;-65
2022/05/20 05:53:27;;;;;;;12.48;10.05;;;;;;;;;;4955998;29;20141;-65
2022/05/20 05:55:58;;;;;;;9.38;8.43;;;;;;;;;;4954236;29;20058;-65
2022/05/20 05:58:27;;;;;;;10.27;9.20;;;;;;;;;;4935816;29;20475;-66
2022/05/20 06:00:56;;;;;;;10.50;9.50;;;;;;;;;;4953272;29;20082;-65
2022/05/20 06:03:25;;;;;;;11.95;9.48;;;;;;;;;;4956457;29;20059;-66
2022/05/20 06:05:55;;;;;;;10.55;8.93;;;;;;;;;;4956139;29;20047;-65
2022/05/20 06:08:25;;;;;;;10.85;9.00;;;;;;;;;;4939946;29;20058;-67
2022/05/20 06:10:59;;;;;;;9.90;9.02;;;;;;;;;;4955388;29;20068;-65
2022/05/20 06:13:30;;;;;;;14.65;8.38;;;;;;;;;;4955168;29;20056;-66
2022/05/20 06:15:58;;;;;;;12.23;8.23;;;;;;;;;;4953308;29;20495;-66
2022/05/20 06:18:26;;;;;;;13.50;7.97;;;;;;;;;;4953941;29;20053;-66
2022/05/20 06:20:54;;;;;;;14.18;7.53;;;;;;;;;;4955303;29;20099;-66
2022/05/20 06:23:23;;;;;;;9.70;7.88;;;;;;;;;;4954697;29;20062;-66
2022/05/20 06:25:52;;;;;;;10.18;7.43;;;;;;;;;;4955435;29;20243;-66
2022/05/20 06:28:41;;;;;;;13.57;8.30;;;;;;;;;;4953727;29;20541;-66
2022/05/20 06:31:09;;;;;;;8.35;7.18;;;;;;;;;;4954092;29;20106;-66
2022/05/20 06:33:38;;;;;;;14.20;8.60;;;;;;;;;;4951889;28;20142;-66
2022/05/20 06:41:40;;;;;;;10.32;7.25;;;;;;;;;;4954019;29;20051;-66
2022/05/20 06:44:08;;;;;;;12.75;7.32;;;;;;;;;;4954281;29;20043;-66
2022/05/20 06:46:39;;;;;;;9.35;7.38;;;;;;;;;;4955427;29;20094;-66
2022/05/20 06:49:07;;;;;;;10.32;7.10;;;;;;;;;;4954222;29;20058;-66
2022/05/20 06:51:37;;;;;;;9.70;7.32;;;;;;;;;;4935766;29;20064;-66
2022/05/20 06:54:09;;;;;;;13.60;8.55;;;;;;;;;;4936447;29;20047;-66
2022/05/20 06:56:39;;;;;;;11.95;5.25;;;;;;;;;;4936141;29;20059;-66
2022/05/20 06:59:08;;;;;;;11.73;5.57;;;;;;;;;;4936391;29;20146;-66
2022/05/20 07:01:38;;;;;;;11.38;7.10;;;;;;;;;;4936412;29;20059;-66
2022/05/20 07:04:30;;;;;;;11.93;6.72;;;;;;;;;;4940870;29;20061;-66
2022/05/20 07:07:01;;;;;;;9.20;7.28;;;;;;;;;;4955744;29;20043;-66
2022/05/20 07:09:30;;;;;;;17.58;6.80;;;;;;;;;;4953758;29;20051;-66
2022/05/20 07:12:00;;;;;;;9.05;6.55;;;;;;;;;;4955384;29;20507;-66
2022/05/20 07:14:29;;;;;;;11.20;6.40;;;;;;;;;;4954493;29;20438;-66
2022/05/20 07:17:01;;;;;;;9.88;6.68;;;;;;;;;;4955830;29;20110;-66
2022/05/20 07:19:30;;;;;;;8.98;6.32;;;;;;;;;;4955108;29;20067;-66
2022/05/20 07:21:59;;;;;;;17.13;7.05;;;;;;;;;;4955206;29;20506;-66
2022/05/20 07:24:27;;;;;;;9.38;7.00;;;;;;;;;;4954480;29;20043;-66
2022/05/20 07:26:55;;;;;;;13.65;6.28;;;;;;;;;;4954791;29;20078;-67
2022/05/20 07:29:25;;;;;;;16.88;6.82;;;;;;;;;;4953267;29;20055;-66
2022/05/20 07:31:59;;;;;;;7.45;6.30;;;;;;;;;;4954082;29;20047;-67
2022/05/20 07:34:30;;;;;;;8.60;7.40;;;;;;;;;;4952936;28;20051;-68
2022/05/20 07:36:59;;;;;;;10.30;6.60;;;;;;;;;;4952334;29;20063;-69
2022/05/20 07:39:28;;;;;;;9.85;6.80;;;;;;;;;;4936453;29;20091;-69
2022/05/20 07:41:56;;;;;;;7.32;6.20;;;;;;;;;;4954747;29;20058;-69
2022/05/20 07:44:24;;;;;;;15.00;6.07;;;;;;;;;;4955277;28;20050;-69
2022/05/20 07:46:53;;;;;;;13.98;5.78;;;;;;;;;;4959543;29;20051;-69
2022/05/20 07:49:22;;;;;;;7.65;6.90;;;;;;;;;;4958546;29;20086;-69
2022/05/20 07:51:52;;;;;;;10.15;5.97;;;;;;;;;;4958277;29;20055;-69
2022/05/20 07:54:24;;;;;;;7.03;6.32;;;;;;;;;;4957745;29;20141;-69
2022/05/20 07:56:59;;;;;;;7.55;6.53;;;;;;;;;;4958685;29;20055;-69
2022/05/20 07:59:32;;;;;;;6.53;5.93;;;;;;;;;;4958198;29;20053;-69
2022/05/20 08:02:01;;;;;;;11.60;6.00;;;;;;;;;;4959027;29;20087;-69
2022/05/20 08:04:55;;;;;;;10.65;7.13;;;;;;;;;;4957854;29;20125;-69
2022/05/20 08:07:33;;;;;;;8.65;6.18;;;;;;;;;;4941208;29;20142;-69
2022/05/20 08:10:06;;;;;;;7.68;6.78;;;;;;;;;;4958884;29;20630;-69
2022/05/20 08:12:35;;;;;;;7.13;5.80;;;;;;;;;;4958650;29;20055;-69
2022/05/20 08:15:06;;;;;;;9.88;6.57;;;;;;;;;;4941655;29;20047;-70
2022/05/20 08:17:36;;;;;;;8.60;5.60;;;;;;;;;;4958340;29;20047;-69
2022/05/20 08:20:07;;;;;;;8.30;6.57;;;;;;;;;;4941492;29;20043;-70
2022/05/20 08:22:37;;;;;;;6.18;5.60;;;;;;;;;;4958231;29;20047;-70
2022/05/20 08:25:07;;;;;;;10.27;6.53;;;;;;;;;;4957181;29;20391;-70
2022/05/20 08:27:35;;;;;;;5.25;4.72;;;;;;;;;;4957490;29;20055;-71
2022/05/20 08:30:29;;;;;;;10.50;5.65;;;;;;;;;;4956800;29;20521;-67
2022/05/20 08:32:57;;;;;;;6.22;5.15;;;;;;;;;;4955911;29;20086;-67
2022/05/20 08:35:27;;;;;;;9.48;6.32;;;;;;;;;;4958028;29;20058;-67
2022/05/20 08:37:56;;;;;;;10.73;5.93;;;;;;;;;;4957918;29;20051;-67
2022/05/20 08:40:29;;;;;;;6.78;5.30;;;;;;;;;;4957062;29;20568;-67
2022/05/20 08:42:59;;;;;;;8.60;6.00;;;;;;;;;;4956780;29;20519;-70
2022/05/20 08:45:29;;;;;;;9.95;4.88;;;;;;;;;;4955846;29;20506;-67
2022/05/20 08:47:56;;;;;;;9.43;6.40;;;;;;;;;;4958199;29;20121;-70
2022/05/20 08:50:27;;;;;;;9.90;5.93;;;;;;;;;;4956477;29;20059;-68
2022/05/20 08:52:56;;;;;;;8.25;5.65;;;;;;;;;;4940056;29;20503;-72
2022/05/20 08:55:26;;;;;;;16.50;7.35;;;;;;;;;;4957123;28;20051;-70
2022/05/20 08:57:59;;;;;;;9.10;6.20;;;;;;;;;;4957661;29;20075;-71
2022/05/20 09:00:29;;;;;;;9.68;5.20;;;;;;;;;;4957647;29;20082;-71
2022/05/20 09:03:06;;;;;;;10.00;6.10;;;;;;;;;;4957449;29;20051;-72
2022/05/20 09:05:38;;;;;;;13.00;5.97;;;;;;;;;;4957329;29;20087;-71
2022/05/20 09:08:17;;;;;;;11.45;5.85;;;;;;;;;;4957036;29;20477;-70
2022/05/20 09:11:13;;;;;;;10.18;5.47;;;;;;;;;;4951615;29;20130;-70
2022/05/20 09:16:31;;;;;;;6.25;5.10;;;;;;;;;;4955528;29;20134;-70
2022/05/20 09:19:29;;;;;;;15.43;5.72;;;;;;;;;;4955246;29;20085;-70
2022/05/20 09:22:16;;;;;;;9.48;5.00;;;;;;;;;;4955743;28;20044;-69
2022/05/20 09:24:45;;;;;;;8.35;5.65;;;;;;;;;;4955167;29;20051;-70
2022/05/20 09:27:15;;;;;;;12.20;5.78;;;;;;;;;;4955423;29;20049;-69
2022/05/20 09:30:15;;;;;;;8.90;6.30;;;;;;;;;;4954596;29;20142;-69
2022/05/20 09:33:17;;;;;;;10.35;5.45;;;;;;;;;;4949055;29;20487;-70
2022/05/20 09:36:04;;;;;;;10.32;6.03;;;;;;;;;;4938850;29;20051;-70
2022/05/20 09:38:41;;;;;;;12.07;6.25;;;;;;;;;;4931293;29;20044;-70
2022/05/20 09:41:22;;;;;;;10.73;6.25;;;;;;;;;;4930134;29;20595;-70
2022/05/20 09:44:00;;;;;;;9.35;6.00;;;;;;;;;;4915589;29;20060;-70
2022/05/20 09:46:40;;;;;;;7.60;6.18;;;;;;;;;;4916894;29;20048;-70
2022/05/20 09:49:23;;;;;;;15.73;6.97;;;;;;;;;;4930942;29;20143;-69
2022/05/20 09:51:55;;;;;;;9.73;5.03;;;;;;;;;;4931154;29;20385;-70
2022/05/20 09:54:33;;;;;;;12.98;6.53;;;;;;;;;;4916574;29;20071;-69
2022/05/20 09:57:06;;;;;;;6.53;5.55;;;;;;;;;;4916730;29;20079;-72
2022/05/20 09:59:44;;;;;;;6.10;5.10;;;;;;;;;;4916036;29;20479;-70
2022/05/20 10:02:42;;;;;;;9.95;4.97;;;;;;;;;;4916556;29;20418;-70
2022/05/20 10:05:42;;;;;;;12.73;6.38;;;;;;;;;;4915981;29;20044;-70
2022/05/20 10:08:13;;;;;;;12.30;5.80;;;;;;;;;;4915422;29;20048;-70
2022/05/20 10:10:50;;;;;;;8.77;5.20;;;;;;;;;;4915697;29;20048;-71
2022/05/20 10:13:32;;;;;;;9.90;5.15;;;;;;;;;;4914853;29;20510;-71
2022/05/20 10:16:09;;;;;;;12.10;5.57;;;;;;;;;;4915746;29;20151;-71
2022/05/20 10:18:44;;;;;;;14.95;4.68;;;;;;;;;;4912865;29;20111;-71
2022/05/20 10:21:26;;;;;;;16.38;6.38;;;;;;;;;;4930240;29;20051;-71
2022/05/20 10:24:21;;;;;;;8.40;4.80;;;;;;;;;;4916259;29;20094;-71
2022/05/20 10:26:54;;;;;;;10.13;5.50;;;;;;;;;;4915594;29;20087;-71
2022/05/20 10:33:03;;;;;;;7.10;5.05;;;;;;;;;;4915244;29;20518;-70
2022/05/20 10:36:04;;;;;;;6.80;4.85;;;;;;;;;;4946117;29;20444;-68
2022/05/20 10:39:01;;;;;;;11.53;4.23;;;;;;;;;;4915611;29;20051;-69
2022/05/20 10:42:00;;;;;;;10.30;5.60;;;;;;;;;;4901611;29;20374;-70
2022/05/20 10:50:56;;;;;;;6.55;4.00;;;;;;;;;;4913927;29;20044;-65
2022/05/20 10:53:39;;;;;;;10.50;5.13;;;;;;;;;;4915260;29;20127;-65
2022/05/20 10:56:19;;;;;;;4.93;4.07;;;;;;;;;;4912106;29;20131;-68
2022/05/20 10:58:59;;;;;;;9.25;4.70;;;;;;;;;;4913766;29;20083;-67
2022/05/20 11:01:41;;;;;;;6.93;4.40;;;;;;;;;;4911968;29;20174;-72
2022/05/20 11:04:15;;;;;;;12.10;4.75;;;;;;;;;;4913363;29;20134;-69
2022/05/20 11:07:01;;;;;;;7.95;4.43;;;;;;;;;;4913898;29;20111;-69
2022/05/20 11:09:57;;;;;;;8.63;4.65;;;;;;;;;;4917102;29;20040;-71
2022/05/20 11:12:39;;;;;;;15.90;5.47;;;;;;;;;;4915315;29;20044;-71
2022/05/20 11:15:32;;;;;;;7.18;5.07;;;;;;;;;;4916922;29;20048;-70
2022/05/20 11:18:06;;;;;;;17.95;4.15;;;;;;;;;;4930796;29;20075;-69
2022/05/20 11:20:52;;;;;;;7.57;3.25;;;;;;;;;;4912509;29;20468;-68
2022/05/20 11:23:47;;;;;;;13.95;4.57;;;;;;;;;;4930035;29;20071;-69
2022/05/20 11:26:36;;;;;;;16.08;4.60;;;;;;;;;;4916803;29;20135;-71
2022/05/20 11:29:05;;;;;;;10.13;4.57;;;;;;;;;;4915723;29;20056;-69
2022/05/20 11:31:51;;;;;;;7.10;3.65;;;;;;;;;;4916569;29;20068;-69
2022/05/20 11:34:38;;;;;;;9.55;3.60;;;;;;;;;;4917820;29;20076;-70
2022/05/20 11:37:24;;;;;;;10.63;3.30;;;;;;;;;;4920421;29;20138;-70
2022/05/20 11:40:29;;;;;;;9.90;4.00;;;;;;;;;;4937865;29;20419;-69
2022/05/20 11:43:26;;;;;;;9.18;3.63;;;;;;;;;;4954729;29;20495;-70
2022/05/20 11:46:19;;;;;;;6.95;3.25;;;;;;;;;;4953985;29;20143;-70
2022/05/20 11:49:07;;;;;;;8.05;3.10;;;;;;;;;;4951660;29;20063;-69
2022/05/20 11:52:06;;;;;;;13.15;3.70;;;;;;;;;;4954057;29;20057;-70
2022/05/20 11:54:59;;;;;;;4.72;3.70;;;;;;;;;;4954752;29;20162;-70
2022/05/20 11:57:28;;;;;;;;;;;;;;;;;;4952495;29;20388;-70
2022/05/20 12:00:08;;;;;;;5.55;3.75;;;;;;;;;;4954594;29;19969;-71
2022/05/20 12:02:55;;;;;;;7.85;3.92;;;;;;;;;;4952730;29;20047;-69
2022/05/20 12:05:29;;;;;;;7.90;3.40;;;;;;;;;;4954334;29;20115;-69
2022/05/20 12:08:04;;;;;;;5.15;3.55;;;;;;;;;;4937480;29;20079;-70
2022/05/20 12:10:31;;;;;;;5.55;2.97;;;;;;;;;;4953127;29;20491;-66
2022/05/20 12:13:11;;;;;;;13.70;4.47;;;;;;;;;;4953949;29;20483;-65
2022/05/20 12:15:47;;;;;;;4.95;2.95;;;;;;;;;;4953652;29;20043;-66
2022/05/20 12:24:26;;;;;;;8.13;2.90;;;;;;;;;;4954133;29;20407;-65
2022/05/20 12:26:56;;;;;;;7.00;3.50;;;;;;;;;;4933375;29;20180;-66
2022/05/20 12:29:43;;;;;;;9.98;3.25;;;;;;;;;;4937346;29;20078;-66
2022/05/20 12:32:35;;;;;;;5.75;2.83;;;;;;;;;;4956240;28;20494;-66
2022/05/20 12:35:17;;;;;;;11.77;3.08;;;;;;;;;;4956681;29;20055;-66
2022/05/20 12:37:45;;;;;;;7.25;3.05;;;;;;;;;;4957579;29;20544;-66
2022/05/20 12:40:19;;;;;;;7.18;2.72;;;;;;;;;;4958198;29;20086;-65
2022/05/20 12:43:03;;;;;;;11.25;3.08;;;;;;;;;;4957294;29;20174;-66
2022/05/20 12:45:54;;;;;;;3.65;2.63;;;;;;;;;;4957597;29;20039;-66
2022/05/20 12:48:28;;;;;;;7.85;3.63;;;;;;;;;;4957152;29;20126;-66
2022/05/20 12:50:59;;;;;;;7.13;2.70;;;;;;;;;;4956101;29;20043;-68
2022/05/20 12:53:31;;;;;;;8.82;3.63;;;;;;;;;;4955369;29;20051;-67
2022/05/20 12:56:01;;;;;;;4.93;3.25;;;;;;;;;;4956849;29;20102;-66
2022/05/20 12:58:35;;;;;;;8.68;2.80;;;;;;;;;;4957528;29;20063;-66
2022/05/20 13:01:07;;;;;;;9.40;3.25;;;;;;;;;;4957037;29;20435;-66
2022/05/20 13:03:39;;;;;;;6.25;2.70;;;;;;;;;;4957272;29;20043;-67
2022/05/20 13:06:38;;;;;;;7.35;2.60;;;;;;;;;;4955359;29;20058;-67
2022/05/20 13:09:09;;;;;;;9.60;3.58;;;;;;;;;;4941398;29;20059;-65
2022/05/20 13:11:50;;;;;;;7.75;2.90;;;;;;;;;;4939731;29;20502;-68
2022/05/20 13:14:30;;;;;;;9.45;2.70;;;;;;;;;;4954467;29;20102;-68
2022/05/20 13:17:01;;;;;;;5.30;2.85;;;;;;;;;;4955556;29;20047;-66
2022/05/20 13:19:53;;;;;;;13.43;4.47;;;;;;;;;;4957015;29;20098;-67
2022/05/20 13:22:26;;;;;;;5.38;3.53;;;;;;;;;;4956733;28;20081;-66
2022/05/20 13:24:57;;;;;;;19.25;4.68;;;;;;;;;;4957180;29;20043;-67
2022/05/20 13:27:26;;;;;;;9.55;3.10;;;;;;;;;;4956084;29;20051;-68
2022/05/20 13:29:54;;;;;;;9.07;3.35;;;;;;;;;;4956906;29;20047;-65
2022/05/20 13:32:32;;;;;;;11.88;4.45;;;;;;;;;;4956948;29;20442;-67
2022/05/20 13:35:01;;;;;;;6.25;2.95;;;;;;;;;;4955901;29;20043;-65
2022/05/20 13:37:41;;;;;;;7.28;3.78;;;;;;;;;;4951764;29;20072;-67
2022/05/20 13:40:19;;;;;;;7.50;3.42;;;;;;;;;;4951816;29;20043;-67
2022/05/20 13:42:55;;;;;;;8.02;3.50;;;;;;;;;;4937085;29;20061;-67
2022/05/20 13:49:13;;;;;;;8.00;3.13;;;;;;;;;;4936985;29;20052;-67
2022/05/20 13:51:44;;;;;;;12.57;3.65;;;;;;;;;;4937948;29;20051;-67
2022/05/20 13:54:23;;;;;;;7.65;3.22;;;;;;;;;;4937552;29;20094;-67
2022/05/20 13:56:53;;;;;;;7.90;2.58;;;;;;;;;;4952316;29;20514;-68
2022/05/20 13:59:25;;;;;;;8.23;3.47;;;;;;;;;;4936797;29;20059;-67
2022/05/20 14:02:16;;;;;;;7.03;4.40;;;;;;;;;;4935336;29;20518;-67
2022/05/20 14:04:48;;;;;;;6.32;2.83;;;;;;;;;;4932216;29;20134;-67
2022/05/20 14:07:36;;;;;;;11.40;3.63;;;;;;;;;;4931692;29;20058;-67
2022/05/20 14:10:08;;;;;;;10.95;2.90;;;;;;;;;;4932744;29;20047;-67
2022/05/20 14:12:44;;;;;;;10.20;3.43;;;;;;;;;;4932605;29;20110;-67
2022/05/20 14:15:41;;;;;;;9.10;3.95;;;;;;;;;;4934475;29;20292;-67
2022/05/20 14:18:23;;;;;;;7.75;2.92;;;;;;;;;;4926784;29;20044;-67
2022/05/20 14:21:28;;;;;;;7.68;2.83;;;;;;;;;;4951612;29;20059;-67
2022/05/20 14:24:00;;;;;;;5.47;2.95;;;;;;;;;;4951629;29;20048;-67
2022/05/20 14:26:36;;;;;;;8.68;4.20;;;;;;;;;;4937357;29;20057;-67
2022/05/20 14:29:35;;;;;;;4.70;2.95;;;;;;;;;;4936874;29;20062;-67
2022/05/20 14:32:08;;;;;;;17.25;5.35;;;;;;;;;;4937191;29;20044;-67
2022/05/20 14:34:35;;;;;;;6.60;3.30;;;;;;;;;;4951411;29;20059;-67
2022/05/20 14:37:33;;;;;;;15.52;2.90;;;;;;;;;;4945143;29;20417;-67
2022/05/20 14:40:14;;;;;;;7.78;3.30;;;;;;;;;;4955612;29;20051;-66
2022/05/20 14:42:43;;;;;;;8.00;3.15;;;;;;;;;;4953537;29;20051;-67
2022/05/20 14:45:32;;;;;;;13.88;3.22;;;;;;;;;;4955681;29;20062;-67
2022/05/20 14:48:11;;;;;;;7.72;3.00;;;;;;;;;;4953772;29;20143;-67
2022/05/20 14:50:44;;;;;;;12.23;3.95;;;;;;;;;;4954831;29;20054;-67
2022/05/20 14:53:23;;;;;;;6.50;2.78;;;;;;;;;;4954381;28;20052;-67
2022/05/20 14:55:56;;;;;;;7.90;3.65;;;;;;;;;;4954696;29;20043;-66
2022/05/20 14:58:24;;;;;;;;;;;;;;;;;;4954399;29;20118;-67
2022/05/20 15:01:13;;;;;;;10.73;4.03;;;;;;;;;;4955324;29;19922;-67
2022/05/20 15:03:46;;;;;;;12.32;3.85;;;;;;;;;;4952457;29;20055;-66
2022/05/20 15:06:22;;;;;;;8.18;3.20;;;;;;;;;;4936264;29;20471;-67
2022/05/20 15:08:51;;;;;;;9.27;3.45;;;;;;;;;;4952552;29;20054;-66
2022/05/20 15:11:27;;;;;;;8.32;3.35;;;;;;;;;;4953546;29;20057;-67
2022/05/20 15:13:56;;;;;;;6.60;3.70;;;;;;;;;;4952613;29;20075;-67
2022/05/20 15:16:24;;;;;;;9.65;3.88;;;;;;;;;;4953550;29;20047;-67
2022/05/20 15:18:53;;;;;;;9.25;3.83;;;;;;;;;;4938317;29;20491;-67
2022/05/20 15:21:29;;;;;;;8.50;3.25;;;;;;;;;;4954901;29;20039;-67
2022/05/20 15:24:04;;;;;;;8.27;3.00;;;;;;;;;;4955101;29;20062;-67
2022/05/20 15:26:35;;;;;;;10.18;3.85;;;;;;;;;;4955141;29;20071;-67
2022/05/20 15:29:05;;;;;;;15.60;3.92;;;;;;;;;;4954743;29;20071;-67
2022/05/20 15:37:19;;;;;;;12.30;3.30;;;;;;;;;;4954978;29;20059;-66
2022/05/20 15:40:08;;;;;;;16.23;4.70;;;;;;;;;;4955275;29;20066;-66
2022/05/20 15:42:38;;;;;;;10.60;3.53;;;;;;;;;;4954687;29;20039;-67
2022/05/20 15:45:16;;;;;;;4.20;3.45;;;;;;;;;;4954733;29;20055;-67
2022/05/20 15:47:45;;;;;;;12.45;3.55;;;;;;;;;;4956400;28;20051;-67
2022/05/20 15:50:14;;;;;;;7.00;3.17;;;;;;;;;;4955076;29;20130;-67
2022/05/20 15:52:44;;;;;;;15.00;3.40;;;;;;;;;;4955143;29;20051;-66
2022/05/20 15:55:27;;;;;;;14.35;4.07;;;;;;;;;;4954625;29;20105;-66
2022/05/20 15:57:59;;;;;;;12.48;4.13;;;;;;;;;;4938615;29;20061;-66
2022/05/20 16:00:28;;;;;;;10.98;4.43;;;;;;;;;;4937912;29;20525;-66
2022/05/20 16:02:56;;;;;;;6.30;2.95;;;;;;;;;;4955094;29;20053;-67
2022/05/20 16:05:25;;;;;;;9.25;3.78;;;;;;;;;;4953702;28;20106;-67
2022/05/20 16:08:08;;;;;;;12.30;4.13;;;;;;;;;;4958126;29;20051;-67
2022/05/20 16:10:39;;;;;;;14.48;3.65;;;;;;;;;;4957644;29;20051;-67